Time;durP1;ratioP1;P1;durP2;ratioP2;P2;SDS_P1;SDS_P2;PMS_P1;PMS_P2;Temp;Humidity;BMP_temperature;BMP_pressure;BME280_temperature;BME280_humidity;BME280_pressure;Samples;Min_cycle;Max_cycle;Signal;HPM_P1;HPM_P2
2023/05/12 00:01:20;;;;;;;1.20;0.93;;;10.80;99.90;;;;;;5023054;28;20850;-79
2023/05/12 00:03:47;;;;;;;1.20;0.90;;;10.80;99.90;;;;;;5018081;28;20454;-80
2023/05/12 00:06:14;;;;;;;1.00;1.00;;;10.80;99.90;;;;;;5020385;28;20509;-80
2023/05/12 00:08:41;;;;;;;1.20;1.00;;;10.80;99.90;;;;;;5020443;28;20446;-80
2023/05/12 00:11:07;;;;;;;0.60;0.60;;;10.80;99.90;;;;;;5011579;28;20523;-80
2023/05/12 00:13:34;;;;;;;1.70;1.17;;;10.80;99.90;;;;;;5012409;28;20770;-80
2023/05/12 00:16:02;;;;;;;0.73;0.73;;;10.80;99.90;;;;;;5016644;28;20813;-80
2023/05/12 00:18:31;;;;;;;0.88;0.82;;;10.80;99.90;;;;;;5016223;28;20434;-79
2023/05/12 00:20:58;;;;;;;0.73;0.73;;;10.80;99.90;;;;;;5016243;28;20449;-80
2023/05/12 00:23:27;;;;;;;0.82;0.70;;;10.80;99.90;;;;;;5021212;28;20427;-80
2023/05/12 00:25:54;;;;;;;1.60;0.60;;;10.80;99.90;;;;;;5020299;28;20520;-80
2023/05/12 00:28:21;;;;;;;0.65;0.65;;;10.80;99.90;;;;;;5021533;28;20430;-79
2023/05/12 00:30:47;;;;;;;1.85;0.70;;;10.80;99.90;;;;;;5021247;28;20814;-80
2023/05/12 00:33:15;;;;;;;3.00;0.60;;;10.80;99.90;;;;;;5008009;28;20443;-79
2023/05/12 00:35:44;;;;;;;0.93;0.90;;;10.90;99.90;;;;;;5007822;28;20464;-80
2023/05/12 00:38:12;;;;;;;0.52;0.52;;;10.90;99.90;;;;;;5009839;28;20861;-79
2023/05/12 00:40:39;;;;;;;2.55;1.13;;;10.90;99.90;;;;;;5020028;28;20857;-80
2023/05/12 00:43:07;;;;;;;0.80;0.80;;;10.90;99.90;;;;;;5014395;28;20430;-80
2023/05/12 00:45:34;;;;;;;0.90;0.90;;;10.90;99.90;;;;;;5016688;28;20526;-80
2023/05/12 00:48:02;;;;;;;1.70;1.33;;;10.80;99.90;;;;;;5011834;28;20431;-80
2023/05/12 00:50:29;;;;;;;1.20;1.15;;;10.80;99.90;;;;;;5019217;28;20446;-80
2023/05/12 00:52:59;;;;;;;1.00;1.00;;;10.80;99.90;;;;;;5036709;28;20430;-79
2023/05/12 00:55:26;;;;;;;1.23;1.13;;;10.70;99.90;;;;;;5011291;28;20473;-79
2023/05/12 00:57:53;;;;;;;0.70;0.70;;;10.80;99.90;;;;;;5022690;28;20451;-80
2023/05/12 01:00:21;;;;;;;0.60;0.60;;;10.70;99.90;;;;;;5013299;28;20705;-80
2023/05/12 01:02:48;;;;;;;0.85;0.85;;;10.80;99.90;;;;;;5016343;28;20434;-80
2023/05/12 01:05:15;;;;;;;0.77;0.68;;;10.80;99.90;;;;;;5025127;28;20470;-80
2023/05/12 01:07:42;;;;;;;1.23;1.15;;;10.80;99.90;;;;;;5037935;28;20425;-80
2023/05/12 01:10:19;;;;;;;0.70;0.70;;;10.70;99.90;;;;;;5022460;28;20434;-79
2023/05/12 01:12:47;;;;;;;0.93;0.93;;;10.80;99.90;;;;;;5028613;28;20492;-80
2023/05/12 01:15:17;;;;;;;2.08;1.55;;;10.70;99.90;;;;;;5023156;28;20931;-80
2023/05/12 01:17:54;;;;;;;0.77;0.77;;;10.70;99.90;;;;;;5029608;28;20443;-80
2023/05/12 01:20:25;;;;;;;0.80;0.80;;;10.70;99.90;;;;;;5016401;28;20977;-80
2023/05/12 01:22:57;;;;;;;1.08;1.02;;;10.70;99.90;;;;;;5027147;28;20435;-80
2023/05/12 01:25:25;;;;;;;1.52;1.27;;;10.70;99.90;;;;;;5018940;28;20512;-80
2023/05/12 01:27:54;;;;;;;0.70;0.70;;;10.70;99.90;;;;;;5025194;28;20496;-80
2023/05/12 01:30:23;;;;;;;1.02;1.02;;;10.70;99.90;;;;;;5020883;28;20492;-80
2023/05/12 01:32:51;;;;;;;1.25;1.15;;;10.70;99.90;;;;;;5025142;28;20960;-80
2023/05/12 01:35:18;;;;;;;0.80;0.77;;;10.70;99.90;;;;;;5025002;28;20446;-80
2023/05/12 01:37:45;;;;;;;1.33;1.23;;;10.70;99.90;;;;;;5023086;28;20438;-80
2023/05/12 01:40:12;;;;;;;1.00;1.00;;;10.70;99.90;;;;;;5026749;28;21022;-80
2023/05/12 01:42:40;;;;;;;1.10;1.10;;;10.70;99.90;;;;;;5024442;28;20450;-80
2023/05/12 01:45:08;;;;;;;1.00;1.00;;;10.70;99.90;;;;;;5024912;28;20496;-80
2023/05/12 01:47:34;;;;;;;2.87;0.90;;;10.70;99.90;;;;;;5026580;28;20921;-80
2023/05/12 01:50:02;;;;;;;1.58;0.82;;;10.70;99.90;;;;;;5022305;28;20456;-80
2023/05/12 01:52:30;;;;;;;2.03;1.15;;;10.70;99.90;;;;;;5017321;28;20933;-80
2023/05/12 01:54:56;;;;;;;0.60;0.60;;;10.70;99.90;;;;;;5023963;28;20818;-80
2023/05/12 01:57:23;;;;;;;1.10;1.00;;;10.70;99.90;;;;;;5021804;28;20441;-80
2023/05/12 01:59:50;;;;;;;1.10;1.00;;;10.70;99.90;;;;;;5036892;28;20427;-80
2023/05/12 02:02:16;;;;;;;2.03;1.02;;;10.70;99.90;;;;;;5023126;28;20868;-80
2023/05/12 02:04:43;;;;;;;1.25;1.15;;;10.70;99.90;;;;;;5026043;28;20466;-81
2023/05/12 02:07:10;;;;;;;0.93;0.82;;;10.70;99.90;;;;;;5025328;28;20857;-80
2023/05/12 02:09:36;;;;;;;1.60;1.08;;;10.60;99.90;;;;;;5021850;28;20444;-81
2023/05/12 02:12:06;;;;;;;1.25;0.98;;;10.70;99.90;;;;;;5037454;28;20442;-80
2023/05/12 02:14:38;;;;;;;1.00;0.85;;;10.70;99.90;;;;;;5017884;28;21068;-81
2023/05/12 02:17:05;;;;;;;0.73;0.70;;;10.80;99.90;;;;;;5025624;28;20443;-80
2023/05/12 02:19:32;;;;;;;2.25;1.13;;;10.70;99.90;;;;;;5019301;28;20844;-81
2023/05/12 02:21:59;;;;;;;0.70;0.70;;;10.70;99.90;;;;;;5007413;28;20497;-80
2023/05/12 02:24:26;;;;;;;1.05;0.82;;;10.70;99.90;;;;;;5017782;28;20939;-81
2023/05/12 02:26:52;;;;;;;0.88;0.88;;;10.70;99.90;;;;;;5021116;28;20469;-81
2023/05/12 02:29:19;;;;;;;0.87;0.87;;;10.70;99.90;;;;;;5018659;28;20518;-80
2023/05/12 02:31:46;;;;;;;1.60;1.50;;;10.70;99.90;;;;;;5021284;28;20445;-81
2023/05/12 02:34:13;;;;;;;1.10;0.82;;;10.70;99.90;;;;;;5020323;28;20443;-80
2023/05/12 02:36:43;;;;;;;1.50;1.40;;;10.70;99.90;;;;;;5021418;28;20861;-81
2023/05/12 02:39:09;;;;;;;0.80;0.80;;;10.70;99.90;;;;;;5029751;28;20443;-81
2023/05/12 02:41:36;;;;;;;1.20;1.20;;;10.70;99.90;;;;;;5023792;28;20497;-80
2023/05/12 02:44:06;;;;;;;2.37;1.37;;;10.80;99.90;;;;;;5021986;28;20485;-81
2023/05/12 02:46:36;;;;;;;1.45;1.35;;;10.80;99.90;;;;;;5038258;28;20434;-81
2023/05/12 02:49:03;;;;;;;1.23;1.13;;;10.80;99.90;;;;;;5014619;28;20822;-80
2023/05/12 02:51:30;;;;;;;1.60;0.93;;;10.80;99.90;;;;;;5027555;28;20522;-80
2023/05/12 02:53:57;;;;;;;2.03;1.50;;;10.80;99.90;;;;;;5010759;28;20448;-80
2023/05/12 02:56:24;;;;;;;2.10;1.63;;;10.90;99.90;;;;;;5009234;28;20437;-80
2023/05/12 02:58:52;;;;;;;1.00;1.00;;;10.90;99.90;;;;;;5017193;28;20511;-80
2023/05/12 03:01:19;;;;;;;1.13;1.02;;;10.90;99.90;;;;;;5018523;28;20436;-80
2023/05/12 03:03:45;;;;;;;1.10;1.00;;;10.90;99.90;;;;;;5017604;28;20443;-80
2023/05/12 03:06:15;;;;;;;0.85;0.73;;;10.90;99.90;;;;;;5027586;28;20845;-80
2023/05/12 03:08:42;;;;;;;0.88;0.88;;;11.00;99.90;;;;;;5022623;28;20431;-80
2023/05/12 03:11:08;;;;;;;1.40;1.30;;;11.00;99.90;;;;;;5024680;28;20430;-79
2023/05/12 03:13:35;;;;;;;2.75;1.33;;;10.90;99.90;;;;;;5024551;28;21110;-80
2023/05/12 03:16:02;;;;;;;1.73;1.23;;;11.00;99.90;;;;;;5014020;28;20676;-80
2023/05/12 03:18:29;;;;;;;2.23;1.10;;;11.00;99.90;;;;;;5022770;28;20434;-79
2023/05/12 03:20:56;;;;;;;1.25;0.85;;;11.00;99.90;;;;;;5021218;28;20510;-80
2023/05/12 03:23:22;;;;;;;1.95;1.10;;;11.00;99.90;;;;;;5019495;28;20921;-80
2023/05/12 03:25:49;;;;;;;1.90;1.75;;;11.00;99.90;;;;;;5021333;28;20871;-80
2023/05/12 03:28:16;;;;;;;0.85;0.85;;;11.00;99.90;;;;;;5034389;28;20458;-79
2023/05/12 03:30:42;;;;;;;1.23;1.13;;;11.00;99.90;;;;;;5025342;28;20797;-79
2023/05/12 03:33:09;;;;;;;1.60;1.40;;;11.00;99.90;;;;;;5025714;28;20781;-78
2023/05/12 03:35:36;;;;;;;3.00;1.40;;;10.90;99.90;;;;;;5020482;28;20442;-79
2023/05/12 03:38:02;;;;;;;1.67;1.48;;;10.90;99.90;;;;;;5021203;28;20442;-78
2023/05/12 03:40:29;;;;;;;1.92;1.38;;;10.90;99.90;;;;;;5020071;28;20431;-78
2023/05/12 03:42:56;;;;;;;1.30;1.07;;;10.90;99.90;;;;;;5022542;28;20495;-79
2023/05/12 03:45:22;;;;;;;1.30;1.20;;;10.90;99.90;;;;;;5021728;28;20438;-80
2023/05/12 03:47:49;;;;;;;1.08;1.08;;;10.90;99.90;;;;;;5024890;28;20434;-79
2023/05/12 03:50:16;;;;;;;4.53;2.10;;;10.90;99.90;;;;;;5019584;28;20779;-80
2023/05/12 03:52:43;;;;;;;2.00;1.80;;;10.90;99.90;;;;;;5021550;28;20478;-80
2023/05/12 03:55:10;;;;;;;0.98;0.80;;;10.80;99.90;;;;;;5020703;28;20984;-79
2023/05/12 03:57:37;;;;;;;0.77;0.68;;;10.80;99.90;;;;;;5019337;28;20443;-79
2023/05/12 04:00:05;;;;;;;0.70;0.60;;;10.80;99.90;;;;;;5015909;28;20910;-79
2023/05/12 04:02:31;;;;;;;0.28;0.28;;;10.80;99.90;;;;;;5022584;28;20427;-79
2023/05/12 04:05:00;;;;;;;0.30;0.30;;;10.70;99.90;;;;;;5026652;28;20438;-79
2023/05/12 04:07:27;;;;;;;0.60;0.50;;;10.70;99.90;;;;;;5022542;28;20944;-80
2023/05/12 04:09:54;;;;;;;0.73;0.50;;;10.70;99.90;;;;;;5018196;28;21012;-79
2023/05/12 04:12:21;;;;;;;0.50;0.50;;;10.60;99.90;;;;;;5013930;28;20680;-79
2023/05/12 04:14:51;;;;;;;0.10;0.10;;;10.60;99.90;;;;;;5014247;28;20487;-79
2023/05/12 04:17:18;;;;;;;0.13;0.13;;;10.60;99.90;;;;;;5020367;28;20431;-79
2023/05/12 04:19:45;;;;;;;0.20;0.20;;;10.60;99.90;;;;;;5040414;28;20445;-80
2023/05/12 04:22:12;;;;;;;0.28;0.28;;;10.60;99.90;;;;;;5023745;28;20442;-80
2023/05/12 04:24:42;;;;;;;0.10;0.10;;;10.60;99.90;;;;;;5024403;28;20490;-80
2023/05/12 04:27:09;;;;;;;0.10;0.10;;;10.60;99.90;;;;;;5021304;28;20437;-80
2023/05/12 04:29:35;;;;;;;0.10;0.10;;;10.60;99.90;;;;;;5023742;28;20462;-79
2023/05/12 04:32:02;;;;;;;0.05;0.03;;;10.70;99.90;;;;;;5021166;28;20434;-80
2023/05/12 04:34:29;;;;;;;0.20;0.20;;;10.70;99.90;;;;;;5011285;28;20474;-80
2023/05/12 04:36:56;;;;;;;0.10;0.10;;;10.70;99.90;;;;;;5023508;28;20488;-79
2023/05/12 04:39:23;;;;;;;0.10;0.10;;;10.70;99.90;;;;;;5019681;28;20443;-80
2023/05/12 04:41:49;;;;;;;0.10;0.10;;;10.80;99.90;;;;;;5034367;28;20441;-79
2023/05/12 04:44:16;;;;;;;0.20;0.20;;;10.80;99.90;;;;;;5020436;28;20438;-79
2023/05/12 04:46:43;;;;;;;0.38;0.38;;;10.80;99.90;;;;;;5017383;28;20430;-79
2023/05/12 04:49:10;;;;;;;0.30;0.30;;;10.80;99.90;;;;;;5017035;28;20854;-79
2023/05/12 04:51:43;;;;;;;0.17;0.17;;;10.80;99.90;;;;;;5021304;28;20533;-79
2023/05/12 04:54:12;;;;;;;0.22;0.22;;;10.80;99.90;;;;;;5016626;28;20526;-79
2023/05/12 04:56:38;;;;;;;0.40;0.20;;;10.90;99.90;;;;;;5021423;28;20461;-79
2023/05/12 04:59:05;;;;;;;0.20;0.15;;;10.90;99.90;;;;;;5020383;28;20431;-79
2023/05/12 05:01:32;;;;;;;0.10;0.10;;;10.90;99.90;;;;;;5018786;28;20490;-79
2023/05/12 05:03:59;;;;;;;0.20;0.20;;;11.00;99.90;;;;;;5011365;28;20857;-79
2023/05/12 05:06:27;;;;;;;0.20;0.20;;;11.00;99.90;;;;;;5015916;28;20470;-79
2023/05/12 05:08:54;;;;;;;0.20;0.20;;;11.00;99.90;;;;;;5019158;28;20446;-79
2023/05/12 05:11:22;;;;;;;0.40;0.22;;;11.00;99.90;;;;;;5034068;28;20839;-79
2023/05/12 05:13:48;;;;;;;0.60;0.43;;;11.00;99.90;;;;;;5017273;28;20447;-79
2023/05/12 05:16:15;;;;;;;0.50;0.35;;;11.10;99.90;;;;;;5025370;28;20778;-79
2023/05/12 05:18:45;;;;;;;0.30;0.30;;;11.10;99.90;;;;;;5025679;28;20811;-79
2023/05/12 05:21:15;;;;;;;0.30;0.30;;;11.20;99.90;;;;;;5020084;28;20466;-79
2023/05/12 05:23:42;;;;;;;0.45;0.45;;;11.30;99.90;;;;;;5020677;28;20822;-79
2023/05/12 05:26:09;;;;;;;0.70;0.40;;;11.40;99.90;;;;;;5014679;28;20522;-79
2023/05/12 05:28:38;;;;;;;0.40;0.40;;;11.50;99.90;;;;;;5019186;28;20788;-79
2023/05/12 05:31:05;;;;;;;0.30;0.30;;;11.60;99.90;;;;;;5020914;28;21003;-80
2023/05/12 05:33:32;;;;;;;0.38;0.38;;;11.60;99.90;;;;;;5023383;28;20524;-80
2023/05/12 05:35:59;;;;;;;0.30;0.30;;;11.60;99.90;;;;;;5024050;28;20861;-80
2023/05/12 05:38:25;;;;;;;5.18;0.85;;;11.60;99.90;;;;;;5018654;28;20438;-80
2023/05/12 05:40:52;;;;;;;1.15;0.52;;;11.70;99.90;;;;;;5021019;28;20809;-80
2023/05/12 05:43:21;;;;;;;0.43;0.43;;;11.70;99.90;;;;;;5021461;28;20472;-80
2023/05/12 05:45:48;;;;;;;2.40;0.52;;;11.80;99.90;;;;;;5012960;28;21010;-79
2023/05/12 05:48:16;;;;;;;0.60;0.60;;;11.90;99.90;;;;;;5029757;28;21990;-80
2023/05/12 05:50:49;;;;;;;0.80;0.80;;;11.90;99.90;;;;;;5022084;28;20433;-80
2023/05/12 05:53:17;;;;;;;0.63;0.63;;;12.00;99.90;;;;;;5028729;28;20443;-81
2023/05/12 05:55:44;;;;;;;0.90;0.57;;;12.10;99.90;;;;;;5021382;28;20851;-80
2023/05/12 05:58:11;;;;;;;0.60;0.60;;;12.10;99.90;;;;;;5014027;28;20441;-80
2023/05/12 06:00:38;;;;;;;1.20;0.43;;;12.20;99.90;;;;;;5014827;28;20435;-81
2023/05/12 06:03:05;;;;;;;2.40;0.88;;;12.40;99.90;;;;;;5019397;28;20431;-82
2023/05/12 06:05:33;;;;;;;0.60;0.60;;;12.40;99.90;;;;;;5021833;28;20938;-81
2023/05/12 06:07:59;;;;;;;0.77;0.77;;;12.30;99.90;;;;;;5018397;28;20812;-80
2023/05/12 06:10:26;;;;;;;0.73;0.73;;;12.40;99.90;;;;;;5036283;28;20449;-81
2023/05/12 06:12:53;;;;;;;0.50;0.50;;;12.50;99.90;;;;;;5018281;28;20954;-80
2023/05/12 06:15:23;;;;;;;0.60;0.60;;;12.40;99.90;;;;;;5026208;28;20439;-81
2023/05/12 06:17:52;;;;;;;1.00;0.47;;;12.40;99.90;;;;;;5016761;28;20436;-80
2023/05/12 06:20:19;;;;;;;0.60;0.60;;;12.50;99.90;;;;;;5017312;28;20481;-80
2023/05/12 06:22:46;;;;;;;0.90;0.82;;;12.30;99.90;;;;;;5021413;28;20431;-80
2023/05/12 06:25:12;;;;;;;1.00;0.90;;;12.30;99.90;;;;;;5017883;28;20783;-81
2023/05/12 06:27:39;;;;;;;0.68;0.68;;;12.30;99.90;;;;;;5020747;28;20432;-79
2023/05/12 06:30:06;;;;;;;1.20;0.80;;;12.20;99.90;;;;;;5025892;28;20449;-80
2023/05/12 06:32:33;;;;;;;0.32;0.32;;;12.30;99.90;;;;;;5020897;28;20531;-80
2023/05/12 06:35:00;;;;;;;0.60;0.60;;;12.30;99.90;;;;;;5022296;28;20522;-79
2023/05/12 06:37:27;;;;;;;0.90;0.90;;;12.40;99.90;;;;;;5025469;28;20434;-80
2023/05/12 06:39:54;;;;;;;0.73;0.73;;;12.50;99.90;;;;;;5024437;28;20446;-79
2023/05/12 06:42:20;;;;;;;0.68;0.55;;;12.60;99.90;;;;;;5020855;28;20439;-80
2023/05/12 06:44:47;;;;;;;0.68;0.60;;;12.80;99.90;;;;;;5022419;28;20435;-78
2023/05/12 06:47:14;;;;;;;1.27;0.80;;;12.90;99.90;;;;;;5014588;28;20444;-79
2023/05/12 06:49:43;;;;;;;1.57;0.97;;;13.30;99.90;;;;;;5020215;28;20439;-80
2023/05/12 06:52:10;;;;;;;0.60;0.57;;;13.60;99.90;;;;;;5016101;28;20487;-80
2023/05/12 06:54:40;;;;;;;0.43;0.43;;;13.70;99.90;;;;;;5022969;28;20926;-81
2023/05/12 06:57:06;;;;;;;1.20;0.70;;;13.70;99.90;;;;;;5018362;28;20448;-79
2023/05/12 06:59:34;;;;;;;4.50;0.88;;;13.70;99.90;;;;;;5021973;28;20446;-77
2023/05/12 07:02:00;;;;;;;0.57;0.40;;;13.50;99.90;;;;;;5022558;28;20518;-76
2023/05/12 07:04:35;;;;;;;0.40;0.40;;;13.50;99.90;;;;;;5008540;28;20443;-77
2023/05/12 07:07:01;;;;;;;0.60;0.47;;;13.70;99.90;;;;;;5014986;28;20944;-76
2023/05/12 07:09:28;;;;;;;1.30;0.80;;;13.90;99.90;;;;;;5011784;28;20440;-77
2023/05/12 07:11:55;;;;;;;0.87;0.87;;;14.20;99.90;;;;;;5030980;28;20435;-76
2023/05/12 07:14:21;;;;;;;0.73;0.60;;;14.20;99.90;;;;;;5016496;28;20435;-76
2023/05/12 07:16:50;;;;;;;1.00;1.00;;;14.50;99.90;;;;;;5025327;28;20470;-76
2023/05/12 07:19:17;;;;;;;0.55;0.55;;;14.70;99.90;;;;;;5018909;28;20430;-76
2023/05/12 07:21:44;;;;;;;0.60;0.60;;;14.80;99.90;;;;;;5017393;28;20904;-76
2023/05/12 07:24:14;;;;;;;0.60;0.53;;;14.80;99.90;;;;;;5016864;28;20935;-75
2023/05/12 07:26:42;;;;;;;1.38;0.68;;;14.90;99.90;;;;;;5017263;28;20429;-75
2023/05/12 07:29:09;;;;;;;1.98;0.65;;;15.00;99.90;;;;;;5021044;28;20467;-76
2023/05/12 07:31:39;;;;;;;0.60;0.60;;;14.90;99.90;;;;;;5022160;28;20432;-80
2023/05/12 07:34:09;;;;;;;0.80;0.80;;;14.70;99.90;;;;;;5016611;28;20508;-79
2023/05/12 07:36:36;;;;;;;1.02;0.73;;;14.50;99.90;;;;;;5018484;28;20439;-78
2023/05/12 07:39:03;;;;;;;0.60;0.60;;;14.60;99.90;;;;;;5016364;28;20431;-80
2023/05/12 07:41:29;;;;;;;0.60;0.60;;;14.70;99.90;;;;;;5022562;28;20489;-79
2023/05/12 07:44:01;;;;;;;0.73;0.73;;;14.50;99.90;;;;;;5015449;28;20583;-79
2023/05/12 07:46:27;;;;;;;0.70;0.70;;;14.50;99.90;;;;;;5013739;28;20446;-79
2023/05/12 07:48:54;;;;;;;5.00;0.90;;;14.40;99.90;;;;;;5031040;28;20443;-79
2023/05/12 07:51:21;;;;;;;0.75;0.75;;;14.20;99.90;;;;;;5020593;28;20434;-79
2023/05/12 07:53:47;;;;;;;0.68;0.68;;;14.30;99.90;;;;;;5019035;28;20865;-80
2023/05/12 07:56:14;;;;;;;0.57;0.57;;;14.30;99.90;;;;;;5017925;28;20760;-78
2023/05/12 07:58:41;;;;;;;4.60;0.80;;;14.30;99.90;;;;;;5015809;28;20442;-79
2023/05/12 08:01:09;;;;;;;0.57;0.57;;;14.40;99.90;;;;;;5010398;28;20833;-79
2023/05/12 08:03:36;;;;;;;0.93;0.93;;;14.40;99.90;;;;;;5014878;28;20436;-79
2023/05/12 08:06:04;;;;;;;0.70;0.70;;;14.30;99.90;;;;;;5014078;28;20431;-79
2023/05/12 08:08:31;;;;;;;0.52;0.52;;;14.40;99.90;;;;;;5019935;28;20432;-78
2023/05/12 08:11:01;;;;;;;0.80;0.80;;;14.50;99.90;;;;;;5017636;28;20592;-79
2023/05/12 08:13:27;;;;;;;0.70;0.70;;;14.50;99.90;;;;;;5038259;28;20480;-78
2023/05/12 08:15:54;;;;;;;0.60;0.60;;;14.60;99.90;;;;;;5017297;28;20435;-79
2023/05/12 08:18:21;;;;;;;0.70;0.70;;;14.80;99.90;;;;;;5014221;28;20942;-79
2023/05/12 08:20:49;;;;;;;1.00;0.80;;;14.90;99.90;;;;;;5010155;28;20433;-79
2023/05/12 08:23:16;;;;;;;0.70;0.70;;;15.10;99.90;;;;;;5018906;28;20427;-77
2023/05/12 08:25:43;;;;;;;0.80;0.80;;;15.30;99.90;;;;;;5017515;28;20809;-78
2023/05/12 08:28:11;;;;;;;0.75;0.75;;;15.50;99.90;;;;;;5020543;28;20569;-77
2023/05/12 08:30:41;;;;;;;0.63;0.63;;;15.80;99.90;;;;;;5022711;28;20447;-77
2023/05/12 08:33:08;;;;;;;0.60;0.60;;;16.00;99.90;;;;;;5013814;28;20439;-77
2023/05/12 08:35:34;;;;;;;1.38;0.50;;;16.00;99.90;;;;;;5024027;28;20431;-78
2023/05/12 08:38:01;;;;;;;0.50;0.50;;;16.20;99.90;;;;;;5016421;28;20453;-78
2023/05/12 08:40:30;;;;;;;0.52;0.52;;;16.20;99.90;;;;;;5021594;28;20438;-76
2023/05/12 08:43:15;;;;;;;0.40;0.40;;;15.80;1.00;;;;;;5013693;28;20439;-76
2023/05/12 08:45:43;;;;;;;4.10;1.10;;;16.20;1.00;;;;;;5016903;28;20807;-80
2023/05/12 08:48:12;;;;;;;0.73;0.73;;;16.30;99.90;;;;;;5017375;28;20709;-79
2023/05/12 08:50:41;;;;;;;0.63;0.63;;;16.80;1.00;;;;;;5010650;28;20830;-79
2023/05/12 08:53:12;;;;;;;1.00;0.77;;;16.80;1.00;;;;;;5035332;28;20440;-80
2023/05/12 08:55:41;;;;;;;0.60;0.60;;;16.70;99.90;;;;;;5020753;28;20430;-77
2023/05/12 08:58:17;;;;;;;0.70;0.70;;;17.10;1.00;;;;;;5009168;28;20883;-79
2023/05/12 09:00:48;;;;;;;0.70;0.70;;;17.40;99.90;;;;;;5020117;28;20435;-77
2023/05/12 09:03:18;;;;;;;0.68;0.60;;;17.70;99.90;;;;;;5022212;28;20510;-78
2023/05/12 09:05:45;;;;;;;0.55;0.55;;;18.10;99.90;;;;;;5021156;28;20434;-79
2023/05/12 09:08:12;;;;;;;1.17;0.98;;;18.30;99.90;;;;;;5020594;28;20427;-79
2023/05/12 09:10:39;;;;;;;0.50;0.50;;;18.70;99.90;;;;;;5022150;28;21018;-80
2023/05/12 09:13:17;;;;;;;0.80;0.80;;;18.80;99.90;;;;;;5020803;28;20490;-80
2023/05/12 09:15:46;;;;;;;0.97;0.83;;;18.60;99.90;;;;;;5017340;28;20892;-81
2023/05/12 09:18:19;;;;;;;0.57;0.57;;;19.10;99.90;;;;;;5015459;28;20530;-81
2023/05/12 09:20:46;;;;;;;1.13;0.75;;;19.70;99.90;;;;;;5006063;28;20432;-82
2023/05/12 09:23:17;;;;;;;0.60;0.60;;;20.10;99.90;;;;;;5011444;28;20860;-82
2023/05/12 09:25:45;;;;;;;0.65;0.65;;;19.10;99.90;;;;;;5019915;28;20437;-83
2023/05/12 09:28:13;;;;;;;0.60;0.50;;;19.50;99.90;;;;;;5023710;28;20437;-82
2023/05/12 09:30:41;;;;;;;1.77;0.60;;;19.80;99.90;;;;;;5023581;28;20514;-82
2023/05/12 09:33:10;;;;;;;0.85;0.60;;;20.30;99.90;;;;;;5019090;28;20466;-81
2023/05/12 09:35:42;;;;;;;0.73;0.50;;;20.70;99.90;;;;;;5039938;28;20478;-82
2023/05/12 09:38:13;;;;;;;1.00;0.40;;;20.60;99.90;;;;;;5020726;28;20532;-79
2023/05/12 09:40:40;;;;;;;0.60;0.60;;;20.70;99.90;;;;;;5014066;28;21265;-78
2023/05/12 09:43:10;;;;;;;1.90;0.60;;;19.70;99.90;;;;;;5022580;28;20431;-79
2023/05/12 09:45:42;;;;;;;0.50;0.50;;;19.00;99.90;;;;;;5022347;28;20434;-79
2023/05/12 09:48:11;;;;;;;0.60;0.60;;;19.10;99.90;;;;;;5017204;28;20432;-79
2023/05/12 09:50:43;;;;;;;0.52;0.52;;;18.70;99.90;;;;;;5017145;28;20439;-79
2023/05/12 09:53:14;;;;;;;0.60;0.60;;;18.20;99.90;;;;;;5037309;28;20427;-81
2023/05/12 09:55:45;;;;;;;1.00;0.73;;;18.20;99.90;;;;;;5017051;28;20439;-79
2023/05/12 09:58:15;;;;;;;0.68;0.68;;;17.80;99.90;;;;;;5018458;28;20446;-80
2023/05/12 10:00:43;;;;;;;0.60;0.60;;;17.30;99.90;;;;;;5020058;28;20445;-80
2023/05/12 10:03:32;;;;;;;0.60;0.60;;;16.80;99.90;;;;;;5009487;28;20418;-79
2023/05/12 10:06:01;;;;;;;0.70;0.60;;;16.30;99.90;;;;;;5019486;28;20477;-79
2023/05/12 10:08:36;;;;;;;0.70;0.70;;;16.00;83.50;;;;;;5020838;28;20436;-81
2023/05/12 10:11:04;;;;;;;0.80;0.80;;;15.70;99.90;;;;;;5020536;28;20522;-79
2023/05/12 10:13:32;;;;;;;0.55;0.55;;;15.40;99.90;;;;;;5035449;28;20435;-79
2023/05/12 10:15:59;;;;;;;0.53;0.53;;;15.30;1.00;;;;;;5020071;28;20443;-80
2023/05/12 10:18:26;;;;;;;0.50;0.50;;;15.20;99.90;;;;;;5022718;28;20445;-80
2023/05/12 10:20:54;;;;;;;0.50;0.50;;;15.00;1.00;;;;;;5034094;28;20600;-81
2023/05/12 10:23:25;;;;;;;0.77;0.70;;;14.90;1.00;;;;;;5014834;28;20502;-78
2023/05/12 10:25:57;;;;;;;1.45;0.50;;;14.70;1.00;;;;;;5017568;28;20431;-79
2023/05/12 10:28:24;;;;;;;0.65;0.65;;;14.60;99.90;;;;;;5020534;28;20427;-82
2023/05/12 10:30:52;;;;;;;0.60;0.60;;;14.40;1.00;;;;;;5016906;28;20537;-80
2023/05/12 10:33:19;;;;;;;2.00;0.50;;;14.40;1.00;;;;;;5019305;28;20477;-80
2023/05/12 10:35:45;;;;;;;0.88;0.88;;;14.40;99.90;;;;;;5019193;28;20845;-80
2023/05/12 10:38:18;;;;;;;0.80;0.80;;;14.40;99.90;;;;;;5025037;28;20462;-80
2023/05/12 10:40:50;;;;;;;0.77;0.77;;;14.30;1.00;;;;;;5021263;28;20430;-79
2023/05/12 10:43:28;;;;;;;0.60;0.60;;;14.20;99.90;;;;;;5018670;28;20445;-78
2023/05/12 10:46:15;;;;;;;0.95;0.88;;;14.00;1.00;;;;;;5012212;28;20441;-78
2023/05/12 10:49:06;;;;;;;0.68;0.68;;;14.00;99.90;;;;;;5021618;28;20422;-78
2023/05/12 10:51:45;;;;;;;0.70;0.70;;;14.00;99.90;;;;;;5015319;28;20507;-79
2023/05/12 10:54:18;;;;;;;0.60;0.60;;;14.20;99.90;;;;;;5017368;28;21018;-78
2023/05/12 10:56:46;;;;;;;0.90;0.73;;;14.60;99.90;;;;;;5013124;28;20439;-79
2023/05/12 10:59:22;;;;;;;0.70;0.70;;;15.00;1.00;;;;;;5014339;28;20895;-79
2023/05/12 11:01:59;;;;;;;0.60;0.60;;;15.40;99.90;;;;;;5023161;28;20472;-78
2023/05/12 11:04:40;;;;;;;0.93;0.93;;;15.60;99.90;;;;;;5019188;28;20805;-79
2023/05/12 11:07:09;;;;;;;0.77;0.77;;;16.20;1.00;;;;;;5018372;28;20935;-78
2023/05/12 11:09:45;;;;;;;0.40;0.40;;;16.80;99.90;;;;;;5030847;28;20513;-80
2023/05/12 11:12:15;;;;;;;0.80;0.80;;;17.00;12.70;;;;;;5030164;28;20435;-81
2023/05/12 11:14:43;;;;;;;3.88;0.77;;;17.00;1.00;;;;;;5020229;28;20443;-80
2023/05/12 11:17:10;;;;;;;1.00;0.55;;;17.00;99.90;;;;;;5022390;28;20513;-81
2023/05/12 11:19:39;;;;;;;0.50;0.50;;;16.60;99.90;;;;;;5016865;28;20678;-82
2023/05/12 11:22:10;;;;;;;0.90;0.90;;;16.20;46.20;;;;;;5015396;28;20438;-80
2023/05/12 11:24:41;;;;;;;0.50;0.50;;;16.00;99.90;;;;;;5021491;28;20434;-80
2023/05/12 11:27:13;;;;;;;1.10;0.80;;;15.80;1.00;;;;;;5019989;28;20521;-81
2023/05/12 11:29:41;;;;;;;0.75;0.70;;;15.70;99.90;;;;;;5023102;28;20813;-80
2023/05/12 11:32:10;;;;;;;0.80;0.80;;;15.70;99.90;;;;;;5021740;28;20958;-81
2023/05/12 11:34:37;;;;;;;0.50;0.50;;;15.70;94.90;;;;;;5016670;28;20442;-80
2023/05/12 11:37:05;;;;;;;1.40;0.60;;;15.70;1.00;;;;;;5018976;28;20917;-82
2023/05/12 11:39:32;;;;;;;0.70;0.70;;;15.90;99.90;;;;;;5015538;28;20438;-80
2023/05/12 11:42:09;;;;;;;0.50;0.50;;;16.40;1.00;;;;;;5017361;28;20801;-80
2023/05/12 11:44:49;;;;;;;0.60;0.60;;;17.00;99.90;;;;;;5017245;28;20430;-80
2023/05/12 11:47:19;;;;;;;0.60;0.60;;;17.60;99.90;;;;;;5020266;28;20438;-81
2023/05/12 11:49:56;;;;;;;4.00;0.90;;;17.80;37.00;;;;;;5018698;28;20429;-81
2023/05/12 11:52:23;;;;;;;2.80;0.90;;;17.90;1.00;;;;;;5021377;28;20435;-80
2023/05/12 11:54:51;;;;;;;0.63;0.63;;;17.80;1.00;;;;;;5016307;28;20461;-81
2023/05/12 11:57:29;;;;;;;0.32;0.32;;;17.90;1.00;;;;;;5013612;28;20921;-81
2023/05/12 12:00:07;;;;;;;1.00;0.90;;;17.70;1.00;;;;;;5021902;28;20431;-81
2023/05/12 12:02:36;;;;;;;0.70;0.70;;;18.10;1.00;;;;;;5011425;28;20531;-80
2023/05/12 12:05:03;;;;;;;0.60;0.60;;;18.60;1.00;;;;;;5015016;28;20961;-79
2023/05/12 12:07:35;;;;;;;0.65;0.65;;;19.00;1.00;;;;;;5019108;28;21183;-81
2023/05/12 12:10:12;;;;;;;0.30;0.30;;;19.60;99.90;;;;;;5017090;28;20490;-81
2023/05/12 12:12:43;;;;;;;0.43;0.43;;;19.80;99.90;;;;;;5016531;28;20814;-80
2023/05/12 12:15:10;;;;;;;0.30;0.30;;;19.90;99.90;;;;;;5014828;28;20443;-80
2023/05/12 12:17:38;;;;;;;0.75;0.38;;;20.10;99.90;;;;;;5014516;28;20442;-81
2023/05/12 12:20:07;;;;;;;0.50;0.50;;;20.50;99.90;;;;;;5014514;28;20501;-81
2023/05/12 12:22:34;;;;;;;0.43;0.43;;;20.40;99.90;;;;;;5019373;28;20529;-81
2023/05/12 12:25:02;;;;;;;1.80;0.40;;;20.30;99.90;;;;;;4953963;28;1785399;-81
2023/05/12 12:27:29;;;;;;;0.40;0.40;;;19.70;99.90;;;;;;5013047;28;20434;-82
2023/05/12 12:29:56;;;;;;;0.20;0.20;;;19.20;99.90;;;;;;5013784;28;20922;-81
2023/05/12 12:32:25;;;;;;;0.40;0.30;;;18.50;99.90;;;;;;5012862;28;20557;-82
2023/05/12 12:34:52;;;;;;;0.40;0.40;;;18.10;99.90;;;;;;5020513;28;20430;-82
2023/05/12 12:37:19;;;;;;;0.47;0.47;;;17.80;99.90;;;;;;5012514;28;20430;-82
2023/05/12 12:39:49;;;;;;;0.35;0.35;;;17.80;99.90;;;;;;5022612;28;20435;-82
2023/05/12 12:42:15;;;;;;;0.50;0.50;;;18.00;99.90;;;;;;5023051;28;20439;-82
2023/05/12 12:44:44;;;;;;;0.20;0.20;;;18.20;99.90;;;;;;5016504;28;20439;-81
2023/05/12 12:47:14;;;;;;;0.45;0.45;;;18.40;99.90;;;;;;5016469;28;20428;-81
2023/05/12 12:49:41;;;;;;;0.50;0.50;;;18.30;99.90;;;;;;5019359;28;20556;-82
2023/05/12 12:52:08;;;;;;;0.30;0.30;;;18.30;99.90;;;;;;5015431;28;20433;-82
2023/05/12 12:54:35;;;;;;;0.40;0.40;;;18.40;99.90;;;;;;5016228;28;20934;-81